Time;durP1;ratioP1;P1;durP2;ratioP2;P2;SDS_P1;SDS_P2;PMS_P1;PMS_P2;Temp;Humidity;BMP_temperature;BMP_pressure;BME280_temperature;BME280_humidity;BME280_pressure;Samples;Min_cycle;Max_cycle;Signal;HPM_P1;HPM_P2
2022/05/22 00:00:20;;;;;;;5.47;2.92;;;;;;;13.90;100.00;99190.88;4914866;29;20042;-87
2022/05/22 00:02:46;;;;;;;8.55;3.33;;;;;;;13.80;100.00;99184.25;4913684;29;20095;-87
2022/05/22 00:05:15;;;;;;;8.38;3.40;;;;;;;13.89;100.00;99190.09;4913058;29;20032;-87
2022/05/22 00:07:40;;;;;;;7.85;3.08;;;;;;;13.76;100.00;99174.34;4914077;29;20024;-86
2022/05/22 00:10:06;;;;;;;7.70;3.13;;;;;;;13.86;100.00;99172.06;4914420;29;20510;-87
2022/05/22 00:12:32;;;;;;;10.70;3.17;;;;;;;13.85;100.00;99181.78;4912185;29;20036;-87
2022/05/22 00:14:58;;;;;;;7.30;2.50;;;;;;;13.81;100.00;99172.69;4913554;29;20028;-87
2022/05/22 00:17:24;;;;;;;7.07;2.78;;;;;;;13.81;100.00;99180.59;4911972;29;20487;-88
2022/05/22 00:19:49;;;;;;;10.18;2.85;;;;;;;13.71;100.00;99177.59;4914914;29;20119;-86
2022/05/22 00:22:16;;;;;;;9.68;3.17;;;;;;;13.68;100.00;99175.38;4915016;29;20060;-87
2022/05/22 00:24:42;;;;;;;7.35;3.10;;;;;;;13.65;100.00;99168.69;4914897;29;20490;-86
2022/05/22 00:27:07;;;;;;;7.95;3.08;;;;;;;13.65;100.00;99165.28;4915053;29;20078;-86
2022/05/22 00:29:32;;;;;;;11.52;3.08;;;;;;;13.72;100.00;99155.47;4914262;29;20024;-88
2022/05/22 00:31:58;;;;;;;9.73;2.95;;;;;;;13.76;100.00;99154.06;4912751;29;20046;-87
2022/05/22 00:34:24;;;;;;;10.48;2.88;;;;;;;13.63;100.00;99152.28;4914021;29;20040;-87
2022/05/22 00:36:50;;;;;;;7.80;3.00;;;;;;;13.67;100.00;99147.41;4914823;29;20506;-88
2022/05/22 00:39:16;;;;;;;10.07;2.70;;;;;;;13.65;100.00;99152.09;4914734;29;20032;-88
2022/05/22 00:41:49;;;;;;;5.10;2.60;;;;;;;13.59;100.00;99137.09;4915331;29;20068;-90
2022/05/22 00:44:14;;;;;;;13.65;3.65;;;;;;;13.54;100.00;99132.47;4914187;29;20028;-88
2022/05/22 00:46:40;;;;;;;7.60;2.97;;;;;;;13.59;100.00;99134.47;4914974;29;20036;-89
2022/05/22 00:49:12;;;;;;;7.70;2.88;;;;;;;13.61;100.00;99129.78;4911133;29;20040;-88
2022/05/22 00:51:49;;;;;;;9.95;2.85;;;;;;;13.60;100.00;99128.19;4914856;29;20032;-88
2022/05/22 00:54:24;;;;;;;8.93;3.15;;;;;;;13.59;100.00;99129.19;4914920;29;20039;-87
2022/05/22 00:56:55;;;;;;;6.82;2.83;;;;;;;13.55;100.00;99129.59;4913546;29;20032;-87
2022/05/22 00:59:26;;;;;;;6.72;3.00;;;;;;;13.58;100.00;99120.47;4914896;29;20043;-87
2022/05/22 01:01:55;;;;;;;11.15;2.75;;;;;;;13.59;100.00;99126.56;4913605;29;20431;-88
2022/05/22 01:04:25;;;;;;;9.52;3.17;;;;;;;13.65;100.00;99123.06;4913011;29;20155;-87
2022/05/22 01:06:51;;;;;;;10.88;3.60;;;;;;;13.65;100.00;99115.94;4914174;29;20028;-87
2022/05/22 01:09:17;;;;;;;6.97;2.72;;;;;;;13.67;100.00;99113.09;4913760;29;20483;-87
2022/05/22 01:11:44;;;;;;;7.20;2.58;;;;;;;13.61;100.00;99112.13;4914494;29;20541;-87
2022/05/22 01:14:16;;;;;;;8.13;3.05;;;;;;;13.79;100.00;99116.69;4916498;29;20024;-88
2022/05/22 01:16:41;;;;;;;10.38;3.00;;;;;;;13.68;100.00;99114.72;4916632;29;20032;-87
2022/05/22 01:19:15;;;;;;;11.18;3.10;;;;;;;13.75;100.00;99101.50;4918144;29;20092;-87
2022/05/22 01:21:53;;;;;;;10.15;3.13;;;;;;;13.84;100.00;99094.91;4923200;29;20099;-88
2022/05/22 01:24:19;;;;;;;8.18;2.70;;;;;;;13.53;100.00;99089.44;4917184;29;20171;-88
2022/05/22 01:26:45;;;;;;;7.43;2.72;;;;;;;13.75;100.00;99093.59;4917893;29;20111;-87
2022/05/22 01:29:11;;;;;;;9.63;2.97;;;;;;;13.69;100.00;99084.69;4918116;29;20028;-88
2022/05/22 01:31:36;;;;;;;8.90;2.75;;;;;;;13.61;100.00;99080.47;4916133;29;20486;-89
2022/05/22 01:34:02;;;;;;;7.63;2.80;;;;;;;13.64;100.00;99076.63;4915992;29;20030;-89
2022/05/22 01:36:28;;;;;;;6.85;2.83;;;;;;;13.59;100.00;99071.97;4916495;29;20119;-87
2022/05/22 01:38:54;;;;;;;11.25;2.85;;;;;;;13.62;100.00;99070.75;4914745;29;20031;-88
2022/05/22 01:41:19;;;;;;;13.57;2.67;;;;;;;13.65;100.00;99063.19;4915786;29;20131;-86
2022/05/22 01:43:45;;;;;;;6.43;2.63;;;;;;;13.24;100.00;99061.81;4914726;29;21622;-88
2022/05/22 01:46:10;;;;;;;6.10;2.28;;;;;;;13.50;100.00;99060.88;4914792;29;20035;-89
2022/05/22 01:48:36;;;;;;;5.20;2.67;;;;;;;13.61;100.00;99059.38;4915083;29;20032;-88
2022/05/22 01:51:02;;;;;;;6.40;2.45;;;;;;;13.21;100.00;99054.31;4917549;29;20034;-88
2022/05/22 01:53:27;;;;;;;7.00;3.00;;;;;;;13.31;100.00;99057.31;4915902;29;20039;-86
2022/05/22 01:55:54;;;;;;;5.65;2.60;;;;;;;13.23;100.00;99055.75;4916134;29;20398;-87
2022/05/22 01:58:20;;;;;;;7.75;3.10;;;;;;;13.10;100.00;99048.72;4915718;29;20047;-87
2022/05/22 02:00:45;;;;;;;8.60;2.70;;;;;;;13.04;100.00;99051.38;4915867;29;20036;-87
2022/05/22 02:03:11;;;;;;;7.50;2.58;;;;;;;13.09;100.00;99044.47;4914691;29;20044;-87
2022/05/22 02:05:37;;;;;;;9.98;2.70;;;;;;;13.39;100.00;99049.16;4917133;29;20028;-87
2022/05/22 02:10:50;;;;;;;5.57;2.47;;;;;;;13.20;100.00;99045.63;4913275;29;20028;-90
2022/05/22 02:13:20;;;;;;;5.32;2.45;;;;;;;13.52;100.00;99037.72;4916622;29;20024;-87
2022/05/22 02:15:48;;;;;;;4.28;2.42;;;;;;;13.64;100.00;99034.41;4915456;29;20039;-90
2022/05/22 02:18:13;;;;;;;5.57;2.30;;;;;;;13.62;100.00;99031.19;4916764;29;20044;-89
2022/05/22 02:20:39;;;;;;;8.45;3.08;;;;;;;13.66;100.00;99012.09;4916628;29;20038;-88
2022/05/22 02:23:05;;;;;;;4.80;2.60;;;;;;;13.66;100.00;99019.19;4916782;29;20040;-88
2022/05/22 02:25:37;;;;;;;8.65;2.53;;;;;;;13.62;100.00;99010.09;4916655;29;20035;-88
2022/05/22 02:28:05;;;;;;;10.75;2.50;;;;;;;13.78;100.00;99012.19;4916644;29;20114;-88
2022/05/22 02:30:37;;;;;;;7.55;3.13;;;;;;;13.81;100.00;99014.38;4915125;29;20020;-88
2022/05/22 02:33:03;;;;;;;7.55;2.88;;;;;;;13.48;100.00;98997.00;4916377;29;20493;-89
2022/05/22 02:35:30;;;;;;;5.57;2.80;;;;;;;13.27;100.00;99009.47;4916417;29;20114;-89
2022/05/22 02:37:56;;;;;;;8.35;2.88;;;;;;;13.56;100.00;99002.03;4916328;29;20529;-87
2022/05/22 02:40:25;;;;;;;7.47;2.90;;;;;;;13.48;100.00;99009.38;4916134;29;20063;-88
2022/05/22 02:42:52;;;;;;;9.00;2.80;;;;;;;13.50;100.00;98992.31;4916260;29;20554;-88
2022/05/22 02:45:21;;;;;;;8.07;2.90;;;;;;;13.69;100.00;98998.47;4915817;29;20043;-88
2022/05/22 02:47:48;;;;;;;6.57;2.83;;;;;;;13.42;100.00;99000.47;4916326;29;20497;-88
2022/05/22 02:50:17;;;;;;;6.47;2.55;;;;;;;13.53;100.00;98989.25;4898663;29;20531;-88
2022/05/22 02:52:42;;;;;;;4.40;2.60;;;;;;;13.65;100.00;98993.81;4914714;29;20028;-88
2022/05/22 02:55:09;;;;;;;8.82;2.78;;;;;;;13.51;100.00;98999.19;4916230;29;20032;-88
2022/05/22 02:57:37;;;;;;;8.70;2.65;;;;;;;13.76;100.00;99001.06;4916063;29;20027;-89
2022/05/22 03:00:32;;;;;;;7.68;2.65;;;;;;;13.75;100.00;98988.06;4915742;29;20066;-87
2022/05/22 03:02:58;;;;;;;6.63;2.80;;;;;;;13.68;100.00;98993.41;4914771;29;20067;-88
2022/05/22 03:05:26;;;;;;;8.45;2.80;;;;;;;13.35;100.00;98979.41;4916615;29;20100;-88
2022/05/22 03:07:52;;;;;;;7.40;2.72;;;;;;;13.82;100.00;98989.63;4914027;29;20038;-89
2022/05/22 03:10:21;;;;;;;4.88;2.03;;;;;;;13.89;100.00;98983.47;4939808;28;20036;-87
2022/05/22 03:12:48;;;;;;;6.68;2.58;;;;;;;13.92;100.00;98980.38;4913974;29;20042;-87
2022/05/22 03:15:14;;;;;;;8.80;3.03;;;;;;;13.97;100.00;98983.22;4915586;29;20110;-87
2022/05/22 03:17:40;;;;;;;5.53;2.85;;;;;;;13.51;100.00;98986.00;4914900;29;20093;-88
2022/05/22 03:20:06;;;;;;;10.70;3.13;;;;;;;13.56;100.00;98977.47;4915287;29;20047;-88
2022/05/22 03:22:32;;;;;;;6.65;2.95;;;;;;;13.79;100.00;98978.69;4915161;29;20046;-87
2022/05/22 03:24:57;;;;;;;8.55;2.80;;;;;;;13.34;100.00;98982.25;4909745;29;20023;-88
2022/05/22 03:27:23;;;;;;;7.63;2.60;;;;;;;13.42;100.00;98976.75;4914802;29;20039;-88
2022/05/22 03:29:50;;;;;;;6.03;2.88;;;;;;;13.43;100.00;98981.81;4915505;29;20039;-91
2022/05/22 03:32:16;;;;;;;7.28;2.45;;;;;;;13.40;100.00;98965.59;4915011;29;20048;-87
2022/05/22 03:34:42;;;;;;;9.38;2.92;;;;;;;13.13;100.00;98971.03;4915563;29;20012;-88
2022/05/22 03:37:08;;;;;;;7.53;3.30;;;;;;;13.04;100.00;98967.84;4913644;29;20443;-89
2022/05/22 03:39:34;;;;;;;5.78;2.55;;;;;;;13.17;100.00;98969.63;4915643;29;20038;-88
2022/05/22 03:42:00;;;;;;;10.05;2.92;;;;;;;13.14;100.00;98970.03;4915322;29;20032;-87
2022/05/22 03:44:26;;;;;;;5.60;2.85;;;;;;;13.17;100.00;98961.72;4915993;29;20048;-87
2022/05/22 03:46:52;;;;;;;4.47;2.50;;;;;;;13.27;100.00;98954.13;4915197;29;20036;-87
2022/05/22 03:49:18;;;;;;;7.47;2.90;;;;;;;13.07;100.00;98961.38;4915098;29;20051;-87
2022/05/22 03:51:43;;;;;;;8.40;2.90;;;;;;;12.88;100.00;98945.47;4915088;29;20031;-87
2022/05/22 03:54:10;;;;;;;5.57;2.50;;;;;;;13.02;100.00;98953.28;4915220;29;20031;-87
2022/05/22 03:56:38;;;;;;;8.52;2.80;;;;;;;12.92;100.00;98943.22;4914396;29;20613;-88
2022/05/22 03:59:04;;;;;;;7.18;2.63;;;;;;;12.97;100.00;98935.47;4914907;29;20481;-90
2022/05/22 04:01:29;;;;;;;5.55;2.83;;;;;;;13.24;100.00;98936.09;4914733;29;20123;-88
2022/05/22 04:03:56;;;;;;;4.55;2.65;;;;;;;13.29;100.00;98927.56;4913150;29;20152;-88
2022/05/22 04:06:21;;;;;;;8.25;2.58;;;;;;;13.23;100.00;98933.66;4912998;29;20051;-87
2022/05/22 04:08:48;;;;;;;10.60;2.92;;;;;;;12.99;100.00;98929.00;4913111;29;20032;-88
2022/05/22 04:11:17;;;;;;;5.85;2.25;;;;;;;13.32;100.00;98932.41;4914416;29;20498;-88
2022/05/22 04:13:43;;;;;;;8.05;2.90;;;;;;;13.20;100.00;98923.56;4914475;29;20032;-88
2022/05/22 04:16:11;;;;;;;7.60;2.65;;;;;;;13.32;100.00;98936.84;4914966;29;20111;-87
2022/05/22 04:18:38;;;;;;;10.00;2.50;;;;;;;13.22;100.00;98932.06;4914860;29;20390;-88
2022/05/22 04:21:04;;;;;;;6.47;2.70;;;;;;;13.22;100.00;98926.78;4914736;29;20119;-87
2022/05/22 04:26:14;;;;;;;5.30;3.00;;;;;;;13.30;100.00;98923.91;4914767;29;20059;-87
2022/05/22 04:28:40;;;;;;;8.88;2.78;;;;;;;13.39;100.00;98929.72;4914950;29;20064;-87
2022/05/22 04:31:06;;;;;;;6.00;2.75;;;;;;;13.52;100.00;98923.56;4913171;29;20028;-87
2022/05/22 04:33:32;;;;;;;8.05;3.25;;;;;;;13.66;100.00;98929.50;4914566;29;20396;-86
2022/05/22 04:35:58;;;;;;;5.93;2.50;;;;;;;13.66;100.00;98934.78;4914434;29;20029;-88
2022/05/22 04:38:24;;;;;;;5.57;2.30;;;;;;;13.49;100.00;98930.06;4914333;29;20043;-87
2022/05/22 04:40:54;;;;;;;6.85;2.53;;;;;;;13.38;100.00;98928.91;4914046;29;20032;-87
2022/05/22 04:43:21;;;;;;;8.93;3.53;;;;;;;13.32;100.00;98926.31;4939359;29;20040;-87
2022/05/22 04:45:46;;;;;;;8.60;2.97;;;;;;;13.35;100.00;98939.88;4914676;29;20039;-88
2022/05/22 04:48:12;;;;;;;9.13;2.97;;;;;;;13.29;100.00;98928.34;4914292;29;20028;-88
2022/05/22 04:50:37;;;;;;;7.85;2.63;;;;;;;13.18;100.00;98931.69;4917072;29;20119;-86
2022/05/22 04:53:03;;;;;;;9.57;2.60;;;;;;;13.41;100.00;98933.72;4918402;29;20031;-88
2022/05/22 04:55:29;;;;;;;6.07;2.45;;;;;;;13.57;100.00;98932.44;4934664;28;20051;-87
2022/05/22 04:57:57;;;;;;;9.73;3.28;;;;;;;13.57;100.00;98926.34;4916871;29;20032;-85
2022/05/22 05:00:23;;;;;;;10.63;2.88;;;;;;;13.58;100.00;98925.31;4916149;29;20032;-87
2022/05/22 05:02:48;;;;;;;5.47;2.58;;;;;;;13.78;100.00;98929.59;4916884;29;20044;-87
2022/05/22 05:05:14;;;;;;;4.90;2.42;;;;;;;13.90;100.00;98927.03;4916909;29;20059;-91
2022/05/22 05:07:41;;;;;;;4.70;2.30;;;;;;;13.93;100.00;98931.88;4917537;29;20160;-89
2022/05/22 05:10:10;;;;;;;6.43;2.58;;;;;;;14.05;100.00;98939.88;4916821;29;20024;-88
2022/05/22 05:12:38;;;;;;;4.90;2.65;;;;;;;14.18;100.00;98931.81;4917748;29;20028;-89
2022/05/22 05:15:07;;;;;;;7.65;2.20;;;;;;;13.99;100.00;98938.94;4916760;29;20546;-89
2022/05/22 05:17:33;;;;;;;5.70;2.38;;;;;;;14.26;100.00;98935.97;4918172;29;20036;-90
2022/05/22 05:19:58;;;;;;;7.50;2.60;;;;;;;14.40;100.00;98944.53;4917541;29;20075;-88
2022/05/22 05:22:25;;;;;;;9.10;3.10;;;;;;;14.51;100.00;98938.53;4918134;29;20566;-89
2022/05/22 05:24:51;;;;;;;5.40;2.50;;;;;;;14.43;100.00;98944.09;4916373;29;20040;-90
2022/05/22 05:27:17;;;;;;;5.05;2.20;;;;;;;14.37;100.00;98937.91;4917927;29;20036;-89
2022/05/22 05:29:42;;;;;;;9.45;3.03;;;;;;;13.97;100.00;98930.44;4918225;29;20174;-90
2022/05/22 05:32:08;;;;;;;6.75;2.72;;;;;;;14.32;100.00;98935.09;4916173;29;20043;-90
2022/05/22 05:34:34;;;;;;;5.15;2.50;;;;;;;14.23;100.00;98925.88;4918049;29;20043;-89
2022/05/22 05:37:00;;;;;;;6.07;2.30;;;;;;;14.49;100.00;98939.78;4917802;29;20078;-90
2022/05/22 05:39:27;;;;;;;4.25;2.88;;;;;;;14.66;100.00;98924.13;4916202;29;20110;-89
2022/05/22 05:41:54;;;;;;;4.22;2.35;;;;;;;14.68;100.00;98917.56;4918352;29;20126;-89
2022/05/22 05:44:20;;;;;;;5.35;2.67;;;;;;;14.75;100.00;98917.50;4916773;29;20070;-88
2022/05/22 05:46:46;;;;;;;4.85;2.55;;;;;;;14.84;100.00;98931.22;4918171;29;20043;-89
2022/05/22 05:49:12;;;;;;;7.50;2.58;;;;;;;15.04;100.00;98930.94;4917723;29;20166;-89
2022/05/22 05:51:38;;;;;;;9.00;2.63;;;;;;;14.99;100.00;98922.84;4919238;29;20490;-90
2022/05/22 05:54:04;;;;;;;5.80;3.20;;;;;;;15.17;100.00;98919.34;4917045;29;20043;-88
2022/05/22 05:56:30;;;;;;;6.60;3.70;;;;;;;15.21;100.00;98917.84;4915650;29;20028;-88
2022/05/22 05:58:57;;;;;;;9.57;2.60;;;;;;;15.28;100.00;98909.81;4936068;29;20040;-89
2022/05/22 06:01:24;;;;;;;8.95;2.72;;;;;;;15.46;100.00;98905.47;4916848;29;20040;-90
2022/05/22 06:03:52;;;;;;;3.03;2.10;;;;;;;15.57;100.00;98905.47;4918181;29;20156;-90
2022/05/22 06:06:18;;;;;;;3.95;2.30;;;;;;;15.63;100.00;98905.56;4918375;29;20427;-90
2022/05/22 06:08:44;;;;;;;6.82;2.35;;;;;;;15.85;100.00;98898.63;4917374;29;20028;-89
2022/05/22 06:11:10;;;;;;;7.32;2.42;;;;;;;16.10;100.00;98894.94;4917530;29;20040;-88
2022/05/22 06:13:36;;;;;;;5.57;2.10;;;;;;;16.20;100.00;98893.53;4916368;29;20035;-90
2022/05/22 06:16:04;;;;;;;7.40;2.47;;;;;;;16.33;100.00;98892.44;4916983;29;20500;-90
2022/05/22 06:18:29;;;;;;;4.70;2.60;;;;;;;16.36;100.00;98892.78;4915422;29;20035;-89
2022/05/22 06:20:55;;;;;;;5.55;2.40;;;;;;;16.38;100.00;98896.00;4916786;29;20032;-89
2022/05/22 06:23:21;;;;;;;3.92;2.47;;;;;;;16.37;100.00;98891.75;4922733;29;20043;-89
2022/05/22 06:25:46;;;;;;;4.72;2.33;;;;;;;16.61;100.00;98891.66;4919009;29;20418;-90
2022/05/22 06:28:13;;;;;;;6.30;1.98;;;;;;;16.76;100.00;98892.97;4915613;29;20459;-90
2022/05/22 06:30:38;;;;;;;7.25;2.55;;;;;;;16.88;100.00;98883.09;4916180;29;20036;-89
2022/05/22 06:33:08;;;;;;;3.05;1.90;;;;;;;16.91;100.00;98882.63;4915099;29;20024;-89
2022/05/22 06:35:34;;;;;;;7.47;2.33;;;;;;;17.09;100.00;98876.31;4915262;29;20028;-87
2022/05/22 06:38:00;;;;;;;10.73;2.35;;;;;;;17.19;100.00;98878.31;4896739;29;20042;-88
2022/05/22 06:40:26;;;;;;;4.57;2.17;;;;;;;17.23;100.00;98883.94;4915928;29;20028;-87
2022/05/22 06:42:51;;;;;;;6.38;2.40;;;;;;;17.37;100.00;98890.50;4915506;29;20040;-89
2022/05/22 06:45:24;;;;;;;4.10;2.08;;;;;;;17.50;100.00;98886.72;4915401;29;20040;-86
2022/05/22 06:47:51;;;;;;;5.00;1.88;;;;;;;17.59;100.00;98891.63;4915070;29;20084;-86
2022/05/22 06:50:25;;;;;;;5.22;2.08;;;;;;;17.61;100.00;98884.22;4914870;29;20032;-86
2022/05/22 06:52:52;;;;;;;11.85;2.58;;;;;;;17.69;100.00;98884.59;4912222;29;20028;-88
2022/05/22 06:55:18;;;;;;;6.00;2.42;;;;;;;17.79;100.00;98875.94;4913193;29;20036;-87
2022/05/22 06:57:44;;;;;;;5.00;2.08;;;;;;;18.13;100.00;98880.38;4912000;29;20162;-83
2022/05/22 07:00:14;;;;;;;3.97;2.10;;;;;;;18.37;100.00;98878.25;4913319;29;20703;-85
2022/05/22 07:02:41;;;;;;;2.90;2.03;;;;;;;18.61;100.00;98875.28;4913896;29;20052;-85
2022/05/22 07:05:07;;;;;;;4.00;1.95;;;;;;;18.77;100.00;98870.13;4914205;29;20044;-84
2022/05/22 07:07:34;;;;;;;6.07;2.47;;;;;;;18.70;100.00;98865.81;4913377;29;20111;-85
2022/05/22 07:10:00;;;;;;;4.43;2.25;;;;;;;18.90;100.00;98867.03;4913956;29;20113;-84
2022/05/22 07:12:25;;;;;;;5.13;2.05;;;;;;;19.04;100.00;98869.28;4913815;29;20129;-85
2022/05/22 07:14:57;;;;;;;7.15;2.20;;;;;;;19.21;100.00;98866.50;4913567;29;20054;-89
2022/05/22 07:17:26;;;;;;;5.65;2.22;;;;;;;19.16;100.00;98851.28;4915457;29;20091;-89
2022/05/22 07:19:53;;;;;;;4.75;2.17;;;;;;;19.22;100.00;98847.59;4913789;29;20125;-90
2022/05/22 07:22:19;;;;;;;3.20;1.80;;;;;;;19.08;100.00;98836.59;4913443;29;20043;-87
2022/05/22 07:24:45;;;;;;;5.10;2.40;;;;;;;19.21;100.00;98840.66;4914018;29;20482;-90
2022/05/22 07:27:10;;;;;;;5.18;2.30;;;;;;;19.19;100.00;98853.44;4913319;29;20070;-88
2022/05/22 07:29:36;;;;;;;3.08;2.10;;;;;;;19.32;100.00;98851.41;4915161;29;20055;-89
2022/05/22 07:32:04;;;;;;;2.92;2.17;;;;;;;18.73;100.00;98851.19;4914607;29;20051;-87
2022/05/22 07:34:30;;;;;;;5.47;2.10;;;;;;;18.93;100.00;98850.56;4915308;29;20487;-86
2022/05/22 07:36:59;;;;;;;4.00;1.90;;;;;;;18.84;100.00;98841.44;4914065;29;20092;-86
2022/05/22 07:39:25;;;;;;;4.63;2.28;;;;;;;18.81;100.00;98841.94;4914815;29;20043;-86
2022/05/22 07:41:50;;;;;;;5.03;2.10;;;;;;;19.22;100.00;98842.28;4904161;29;20029;-84
2022/05/22 07:44:16;;;;;;;5.30;2.47;;;;;;;19.36;100.00;98832.00;4915987;29;20036;-88
2022/05/22 07:46:41;;;;;;;2.42;2.20;;;;;;;19.59;100.00;98847.81;4914258;29;20139;-88
2022/05/22 07:49:07;;;;;;;10.07;2.45;;;;;;;19.12;100.00;98842.22;4916469;29;20027;-87
2022/05/22 07:51:32;;;;;;;5.53;2.40;;;;;;;19.11;100.00;98830.75;4915049;29;20032;-86
2022/05/22 07:53:58;;;;;;;5.07;2.25;;;;;;;19.15;100.00;98846.22;4914881;29;20091;-86
2022/05/22 07:56:24;;;;;;;4.85;2.60;;;;;;;18.68;100.00;98838.69;4915277;29;20036;-85
2022/05/22 07:58:51;;;;;;;6.05;2.50;;;;;;;18.87;100.00;98832.97;4904309;29;20028;-85
2022/05/22 08:01:18;;;;;;;4.53;2.40;;;;;;;18.68;100.00;98828.03;4914226;29;20095;-86
2022/05/22 08:03:45;;;;;;;3.28;2.55;;;;;;;19.07;100.00;98818.25;4912793;29;20390;-88
2022/05/22 08:06:11;;;;;;;4.18;2.38;;;;;;;19.26;100.00;98821.28;4915568;29;20036;-85
2022/05/22 08:08:37;;;;;;;6.68;2.67;;;;;;;19.31;100.00;98812.53;4913797;29;20040;-85
2022/05/22 08:11:04;;;;;;;5.18;3.00;;;;;;;18.46;100.00;98803.38;4912604;29;20051;-84
2022/05/22 08:13:30;;;;;;;4.18;2.30;;;;;;;18.98;100.00;98788.63;4914740;29;20518;-88
2022/05/22 08:15:56;;;;;;;2.70;2.17;;;;;;;18.80;100.00;98792.50;4914542;29;20067;-84
2022/05/22 08:18:22;;;;;;;5.57;2.88;;;;;;;18.49;100.00;98802.91;4910257;29;20092;-86
2022/05/22 08:20:49;;;;;;;4.57;2.83;;;;;;;18.11;100.00;98800.94;4912107;29;20040;-86
2022/05/22 08:23:18;;;;;;;3.97;2.60;;;;;;;17.99;100.00;98806.38;4910379;29;20039;-90
2022/05/22 08:25:44;;;;;;;3.65;2.25;;;;;;;18.03;100.00;98814.66;4919701;29;20032;-86
2022/05/22 08:28:10;;;;;;;7.25;2.80;;;;;;;18.02;100.00;98794.47;4914858;29;20110;-85
2022/05/22 08:30:37;;;;;;;6.22;3.03;;;;;;;18.33;100.00;98800.09;4913963;29;20090;-89
2022/05/22 08:33:03;;;;;;;6.03;2.78;;;;;;;18.90;100.00;98797.06;4916004;29;20083;-90
2022/05/22 08:35:32;;;;;;;4.20;2.88;;;;;;;19.12;100.00;98811.09;4915869;29;20036;-90
2022/05/22 08:37:59;;;;;;;4.05;2.53;;;;;;;19.10;100.00;98804.44;4915761;29;20028;-90
2022/05/22 08:40:28;;;;;;;4.93;2.55;;;;;;;19.82;100.00;98807.44;4915849;29;20032;-90
2022/05/22 08:43:10;;;;;;;4.57;3.15;;;;;;;19.20;100.00;98812.47;4915673;29;20498;-90
2022/05/22 08:45:44;;;;;;;5.07;2.50;;;;;;;19.24;100.00;98800.25;4907817;29;20028;-90
2022/05/22 08:48:31;;;;;;;4.97;2.40;;;;;;;19.65;100.00;98796.19;4932782;29;20051;-90
2022/05/22 08:50:58;;;;;;;4.93;2.70;;;;;;;19.17;100.00;98802.34;4914729;29;20107;-89
2022/05/22 08:53:53;;;;;;;4.65;2.72;;;;;;;19.25;100.00;98795.75;4914923;29;20067;-90
2022/05/22 08:59:22;;;;;;;4.47;2.38;;;;;;;19.69;100.00;98791.94;4913273;29;20036;-89
2022/05/22 09:02:16;;;;;;;5.88;2.53;;;;;;;19.32;100.00;98792.84;4912248;29;20044;-90
2022/05/22 09:04:49;;;;;;;;;;;;;;;19.55;100.00;98788.94;4902877;29;20044;-90
2022/05/22 09:07:23;;;;;;;4.07;2.47;;;;;;;20.06;100.00;98776.91;4913318;29;20017;-89
2022/05/22 09:09:57;;;;;;;4.13;2.45;;;;;;;19.65;100.00;98781.00;4914584;29;20028;-88
2022/05/22 09:12:40;;;;;;;3.63;2.45;;;;;;;19.21;100.00;98779.47;4912986;29;20024;-89
2022/05/22 09:15:15;;;;;;;3.95;2.40;;;;;;;19.92;100.00;98777.38;4914792;29;20390;-88
2022/05/22 09:18:04;;;;;;;2.70;2.45;;;;;;;19.98;100.00;98778.19;4914951;29;20032;-90
2022/05/22 09:20:37;;;;;;;4.47;2.85;;;;;;;19.84;99.97;98781.31;4910316;29;20036;-89
2022/05/22 09:23:14;;;;;;;4.43;2.63;;;;;;;20.02;99.38;98770.50;4911796;29;20036;-89
2022/05/22 09:25:39;;;;;;;6.38;3.42;;;;;;;19.07;100.00;98781.81;4913399;29;20028;-89
2022/05/22 09:28:14;;;;;;;5.97;3.10;;;;;;;19.41;100.00;98772.66;4912577;29;20482;-88
2022/05/22 09:30:55;;;;;;;5.22;2.80;;;;;;;20.81;99.10;98768.41;4913279;29;20055;-89
2022/05/22 09:33:49;;;;;;;4.82;3.05;;;;;;;21.07;97.95;98780.91;4911928;29;20072;-89
2022/05/22 09:36:36;;;;;;;3.67;2.80;;;;;;;21.87;96.04;98773.16;4927032;28;20044;-89
2022/05/22 09:39:15;;;;;;;5.40;3.15;;;;;;;22.20;94.89;98779.63;4917145;29;20043;-90
2022/05/22 09:41:51;;;;;;;8.57;3.83;;;;;;;22.60;91.99;98778.81;4916507;29;20047;-89
2022/05/22 09:44:51;;;;;;;4.75;3.63;;;;;;;22.20;90.80;98778.81;4915980;29;20032;-91
2022/05/22 09:47:25;;;;;;;5.15;3.88;;;;;;;22.29;90.93;98771.81;4916837;29;20509;-89
2022/05/22 09:50:13;;;;;;;5.38;3.35;;;;;;;22.82;90.58;98756.97;4913875;29;20076;-89
2022/05/22 09:53:04;;;;;;;4.40;3.58;;;;;;;22.62;91.35;98753.41;4915733;29;20044;-91
2022/05/22 09:55:50;;;;;;;4.07;3.67;;;;;;;22.33;91.18;98751.47;4916946;29;20043;-88
2022/05/22 09:58:34;;;;;;;4.75;3.55;;;;;;;22.70;89.78;98740.50;4916903;29;20526;-89
2022/05/22 10:01:06;;;;;;;5.35;3.80;;;;;;;23.09;88.73;98729.66;4899369;29;20035;-90
2022/05/22 10:03:42;;;;;;;5.38;4.00;;;;;;;21.96;90.87;98736.75;4916865;29;20108;-91
2022/05/22 10:06:14;;;;;;;5.93;4.03;;;;;;;22.13;90.27;98716.88;4915718;29;20081;-89
2022/05/22 10:08:39;;;;;;;4.80;3.78;;;;;;;22.92;90.71;98711.34;4917106;29;20040;-89
2022/05/22 10:11:36;;;;;;;5.15;4.25;;;;;;;23.80;87.53;98715.66;4916970;29;20036;-89
2022/05/22 10:14:29;;;;;;;4.25;3.30;;;;;;;23.78;84.96;98709.78;4915697;29;20032;-88
2022/05/22 10:17:29;;;;;;;4.57;3.50;;;;;;;24.02;85.12;98711.59;4916040;29;20028;-88
2022/05/22 10:20:12;;;;;;;5.88;3.38;;;;;;;24.06;83.52;98706.44;4916633;29;20302;-89
2022/05/22 10:22:49;;;;;;;4.43;3.63;;;;;;;23.91;84.40;98710.94;4916907;29;20395;-89
2022/05/22 10:25:21;;;;;;;5.63;4.20;;;;;;;23.53;83.64;98706.34;4916627;29;20029;-89
2022/05/22 10:28:12;;;;;;;6.72;4.60;;;;;;;23.04;84.04;98702.16;4915546;29;20039;-91
2022/05/22 10:30:56;;;;;;;4.57;4.13;;;;;;;23.24;81.68;98698.41;4916607;29;20059;-90
2022/05/22 10:33:30;;;;;;;5.05;4.25;;;;;;;23.66;80.50;98687.97;4916599;29;20036;-89
2022/05/22 10:35:59;;;;;;;;;;;;;;;23.44;80.62;98686.69;4915789;29;20039;-90
2022/05/22 10:38:35;;;;;;;4.63;4.22;;;;;;;24.13;80.63;98674.69;4916336;29;19938;-89
2022/05/22 10:44:07;;;;;;;4.53;4.13;;;;;;;24.80;77.05;98664.69;4916002;29;20040;-89
2022/05/22 10:46:48;;;;;;;4.40;4.00;;;;;;;25.12;77.47;98656.81;4915047;29;20040;-91
2022/05/22 10:49:14;;;;;;;4.50;4.10;;;;;;;24.87;76.71;98659.72;4914222;29;20031;-89
2022/05/22 10:51:41;;;;;;;6.30;4.25;;;;;;;25.21;75.18;98650.44;4915635;29;20051;-90
2022/05/22 10:54:07;;;;;;;4.95;4.13;;;;;;;25.14;77.38;98646.56;4916275;29;20036;-89
2022/05/22 10:56:35;;;;;;;4.57;3.88;;;;;;;25.51;74.66;98656.22;4915990;29;20051;-90
2022/05/22 10:59:06;;;;;;;5.13;4.63;;;;;;;24.31;75.65;98654.28;4914397;29;20608;-90
2022/05/22 11:01:40;;;;;;;5.25;4.35;;;;;;;25.09;77.00;98652.81;4914642;29;20418;-91
2022/05/22 11:04:17;;;;;;;4.32;3.90;;;;;;;25.49;77.34;98644.22;4914805;29;20474;-90
2022/05/22 11:06:55;;;;;;;4.53;3.83;;;;;;;25.34;75.72;98645.31;4915450;29;20107;-90
2022/05/22 11:09:31;;;;;;;3.97;3.60;;;;;;;24.92;74.86;98646.19;4914758;29;20036;-90
2022/05/22 11:12:07;;;;;;;4.10;3.70;;;;;;;24.79;75.23;98647.00;4915382;29;20491;-89
2022/05/22 11:14:35;;;;;;;3.90;3.60;;;;;;;24.23;76.74;98653.06;4915908;29;20655;-89
2022/05/22 11:17:19;;;;;;;3.78;3.30;;;;;;;24.24;77.56;98648.50;4914621;29;20375;-89
2022/05/22 11:19:48;;;;;;;4.85;3.60;;;;;;;24.17;77.12;98634.66;4914849;29;20114;-89
2022/05/22 11:22:31;;;;;;;4.43;3.67;;;;;;;23.33;79.20;98645.84;4912789;29;20028;-87
2022/05/22 11:25:21;;;;;;;3.60;3.38;;;;;;;23.80;80.37;98635.25;4913653;29;20047;-87
2022/05/22 11:28:25;;;;;;;3.63;3.28;;;;;;;24.04;79.90;98634.34;4915610;29;20494;-90
2022/05/22 11:30:59;;;;;;;3.15;2.95;;;;;;;24.11;80.59;98628.63;4920581;29;20128;-90
2022/05/22 11:33:48;;;;;;;3.20;2.80;;;;;;;24.02;79.58;98631.19;4916165;29;20435;-89
2022/05/22 11:36:34;;;;;;;3.35;2.72;;;;;;;24.53;79.40;98623.28;4915476;29;20028;-91
2022/05/22 11:39:31;;;;;;;4.13;2.92;;;;;;;24.22;78.92;98616.59;4916022;29;20475;-90
2022/05/22 11:42:10;;;;;;;3.00;2.80;;;;;;;24.62;78.08;98628.75;4915527;29;20076;-91
2022/05/22 11:44:44;;;;;;;2.60;2.50;;;;;;;24.44;75.52;98619.72;4914778;29;20056;-86
2022/05/22 11:47:24;;;;;;;5.10;3.00;;;;;;;24.47;77.17;98619.13;4915008;29;20475;-84
2022/05/22 11:50:12;;;;;;;3.53;2.95;;;;;;;25.12;76.23;98609.25;4915505;29;20063;-84